Dirección General De Aeronáutica Civil

Dirección Meteorológica de Chile - Servicios Climáticos

Informe General de Control de Calidad de la Estación

Listado de niveles de control de calidad para algunos parámetros
Estación Reserva Nacional Fray Jorge (300032)
Fecha de Revisión de los datos :

Elementos

Registros Niveles de Control Total
Nivel 0 Nivel 1 Nivel 2 Nivel 3 Errores Porcentaje
01 Temperatura del Aire Seco 11.754 0 . 0 . 0 . 0 . 0 0.00 %
02 Humedad Relativa del Aire 0 0 . 0 . 0 . 0 . 0 .
03 Temperatura Máxima PM 4.065 0 . 0 . 65 1.60 % 0 . 65 1.60 %
04 Temperatura Mínima AM 3.788 0 . 0 . 9 0.24 % 0 . 9 0.24 %
05 Viento a 10 m. de Altura 1.566 0 . 0 . 0 . 0 . 0 0.00 %

Totales

21.173 . 0.0000 % . 0.0000 % . 0.3495 % . 0.0000 % 74 0.3495 %

Detalle de Errores Encontrados

Nivel Fecha del Dato Descripción Información Error Fecha Ingreso
2 2000-01-31 00:00:00 Temperatura 26.9 del 30-01-2000 18:00, Mayor que la Máxima 26.4 31-01-2000 00:00 26.9 -- 26.4 2023-12-29 02:20:00
2 2000-05-04 00:00:00 Temperatura 18.4 del 03-05-2000 18:00, Mayor que la Máxima 17.2 04-05-2000 00:00 18.4 -- 17.2 2023-12-29 02:20:00
2 2000-06-02 00:00:00 Temperatura 20.6 del 01-06-2000 18:00, Mayor que la Máxima 20.2 02-06-2000 00:00 20.6 -- 20.2 2023-12-29 02:20:00
2 2000-06-06 00:00:00 Temperatura 15.8 del 05-06-2000 18:00, Mayor que la Máxima 14.8 06-06-2000 00:00 15.8 -- 14.8 2023-12-29 02:20:00
2 2000-06-08 00:00:00 Temperatura 15.8 del 07-06-2000 18:00, Mayor que la Máxima 15.6 08-06-2000 00:00 15.8 -- 15.6 2023-12-29 02:20:00
2 2000-06-18 00:00:00 Temperatura 13.2 del 17-06-2000 18:00, Mayor que la Máxima 13.1 18-06-2000 00:00 13.2 -- 13.1 2023-12-29 02:20:00
2 2000-06-27 00:00:00 Temperatura 16.6 del 26-06-2000 18:00, Mayor que la Máxima 16.4 27-06-2000 00:00 16.6 -- 16.4 2023-12-29 02:20:00
2 2000-08-19 00:00:00 Temperatura 17.4 del 18-08-2000 18:00, Mayor que la Máxima 16.2 19-08-2000 00:00 17.4 -- 16.2 2023-12-29 02:20:00
2 2000-09-05 00:00:00 Temperatura 19.2 del 05-09-2000 00:00, Mayor que la Máxima 13.8 05-09-2000 00:00 19.2 -- 13.8 2023-12-29 02:20:00
2 2000-09-19 00:00:00 Temperatura 19.0 del 18-09-2000 18:00, Mayor que la Máxima 18.2 19-09-2000 00:00 19.0 -- 18.2 2023-12-29 02:20:00
2 2000-10-01 00:00:00 Temperatura 16.6 del 30-09-2000 18:00, Mayor que la Máxima 13.0 01-10-2000 00:00 16.6 -- 13.0 2023-12-29 02:20:00
2 2002-01-06 00:00:00 Temperatura 24.2 del 05-01-2002 18:00, Mayor que la Máxima 21.2 06-01-2002 00:00 24.2 -- 21.2 2023-12-29 02:21:00
2 2002-04-09 00:00:00 Temperatura 19.6 del 09-04-2002 00:00, Mayor que la Máxima 19.2 09-04-2002 00:00 19.6 -- 19.2 2023-12-29 02:21:00
2 2002-04-10 00:00:00 Temperatura 21.1 del 10-04-2002 00:00, Mayor que la Máxima 19.4 10-04-2002 00:00 21.1 -- 19.4 2023-12-29 02:21:00
2 2002-05-04 00:00:00 Temperatura 17.6 del 03-05-2002 18:00, Mayor que la Máxima 15.6 04-05-2002 00:00 17.6 -- 15.6 2023-12-29 02:22:00
2 2002-06-14 00:00:00 Temperatura 14.2 del 13-06-2002 18:00, Mayor que la Máxima 13.2 14-06-2002 00:00 14.2 -- 13.2 2023-12-29 02:22:00
2 2002-06-18 00:00:00 Temperatura 12.8 del 17-06-2002 18:00, Mayor que la Máxima 11.4 18-06-2002 00:00 12.8 -- 11.4 2023-12-29 02:22:00
2 2002-06-19 00:00:00 Temperatura 18.2 del 18-06-2002 18:00, Mayor que la Máxima 17.4 19-06-2002 00:00 18.2 -- 17.4 2023-12-29 02:22:00
2 2002-06-20 00:00:00 Temperatura 21.4 del 19-06-2002 18:00, Mayor que la Máxima 20.2 20-06-2002 00:00 21.4 -- 20.2 2023-12-29 02:22:00
2 2002-06-21 00:00:00 Temperatura 18.2 del 20-06-2002 18:00, Mayor que la Máxima 17.6 21-06-2002 00:00 18.2 -- 17.6 2023-12-29 02:22:00
2 2002-06-23 00:00:00 Temperatura 10.8 del 22-06-2002 18:00, Mayor que la Máxima 10.6 23-06-2002 00:00 10.8 -- 10.6 2023-12-29 02:22:00
2 2002-06-24 00:00:00 Temperatura 11.8 del 23-06-2002 18:00, Mayor que la Máxima 10.6 24-06-2002 00:00 11.8 -- 10.6 2023-12-29 02:22:00
2 2002-06-25 00:00:00 Temperatura 16.2 del 24-06-2002 18:00, Mayor que la Máxima 15.2 25-06-2002 00:00 16.2 -- 15.2 2023-12-29 02:22:00
2 2002-06-26 00:00:00 Temperatura 13.4 del 25-06-2002 18:00, Mayor que la Máxima 13.0 26-06-2002 00:00 13.4 -- 13.0 2023-12-29 02:22:00
2 2002-06-28 00:00:00 Temperatura 15.8 del 27-06-2002 18:00, Mayor que la Máxima 14.2 28-06-2002 00:00 15.8 -- 14.2 2023-12-29 02:22:00
2 2002-06-29 00:00:00 Temperatura 12.8 del 28-06-2002 18:00, Mayor que la Máxima 12.0 29-06-2002 00:00 12.8 -- 12.0 2023-12-29 02:22:00
2 2002-07-03 00:00:00 Temperatura 18.2 del 03-07-2002 00:00, Mayor que la Máxima 12.4 03-07-2002 00:00 18.2 -- 12.4 2023-12-29 02:22:00
2 2002-07-05 00:00:00 Temperatura 14.4 del 04-07-2002 18:00, Mayor que la Máxima 13.2 05-07-2002 00:00 14.4 -- 13.2 2023-12-29 02:22:00
2 2002-07-08 00:00:00 Temperatura 19.6 del 07-07-2002 18:00, Mayor que la Máxima 18.2 08-07-2002 00:00 19.6 -- 18.2 2023-12-29 02:22:00
2 2002-07-12 00:00:00 Temperatura 13.8 del 11-07-2002 18:00, Mayor que la Máxima 12.8 12-07-2002 00:00 13.8 -- 12.8 2023-12-29 02:22:00
2 2002-07-19 00:00:00 Temperatura 12.0 del 18-07-2002 18:00, Mayor que la Máxima 10.0 19-07-2002 00:00 12.0 -- 10.0 2023-12-29 02:22:00
2 2002-07-22 00:00:00 Temperatura 15.8 del 21-07-2002 18:00, Mayor que la Máxima 15.0 22-07-2002 00:00 15.8 -- 15.0 2023-12-29 02:22:00
2 2002-08-02 00:00:00 Temperatura 13.4 del 01-08-2002 18:00, Mayor que la Máxima 13.0 02-08-2002 00:00 13.4 -- 13.0 2023-12-29 02:22:00
2 2002-08-08 00:00:00 Temperatura 18.2 del 08-08-2002 00:00, Mayor que la Máxima 15.4 08-08-2002 00:00 18.2 -- 15.4 2023-12-29 02:22:00
2 2002-11-10 00:00:00 Temperatura 19.2 del 10-11-2002 00:00, Mayor que la Máxima 17.6 10-11-2002 00:00 19.2 -- 17.6 2023-12-29 02:22:00
2 2003-01-01 00:00:00 Temperatura 24.2 del 01-01-2003 00:00, Mayor que la Máxima 22.8 01-01-2003 00:00 24.2 -- 22.8 2023-12-29 02:22:00
2 2003-01-01 00:00:00 Temperatura 24.2 del 01-01-2003 00:00, Mayor que la Máxima 22.8 01-01-2003 00:00 24.2 -- 22.8 2023-12-29 02:22:00
2 2003-01-14 00:00:00 Temperatura 20.8 del 14-01-2003 00:00, Mayor que la Máxima 20.4 14-01-2003 00:00 20.8 -- 20.4 2023-12-29 02:22:00
2 2003-03-25 00:00:00 Temperatura 22.6 del 24-03-2003 18:00, Mayor que la Máxima 22.2 25-03-2003 00:00 22.6 -- 22.2 2023-12-29 02:22:00
2 2003-05-28 00:00:00 Temperatura 19.0 del 27-05-2003 18:00, Mayor que la Máxima 17.4 28-05-2003 00:00 19.0 -- 17.4 2023-12-29 02:22:00
2 2003-07-06 00:00:00 Temperatura 18.8 del 05-07-2003 18:00, Mayor que la Máxima 16.8 06-07-2003 00:00 18.8 -- 16.8 2023-12-29 02:22:00
2 2004-02-20 00:00:00 Temperatura 22.6 del 19-02-2004 18:00, Mayor que la Máxima 22.4 20-02-2004 00:00 22.6 -- 22.4 2023-12-29 02:23:00
2 2004-02-22 00:00:00 Temperatura 22.6 del 22-02-2004 00:00, Mayor que la Máxima 21.4 22-02-2004 00:00 22.6 -- 21.4 2023-12-29 02:23:00
2 2004-03-04 00:00:00 Temperatura 25.2 del 03-03-2004 18:00, Mayor que la Máxima 24.6 04-03-2004 00:00 25.2 -- 24.6 2023-12-29 02:23:00
2 2004-05-30 00:00:00 Temperatura 18.4 del 29-05-2004 18:00, Mayor que la Máxima 16.4 30-05-2004 00:00 18.4 -- 16.4 2023-12-29 02:23:00
2 2004-06-16 00:00:00 Temperatura 22.2 del 15-06-2004 18:00, Mayor que la Máxima 14.4 16-06-2004 00:00 22.2 -- 14.4 2023-12-29 02:23:00
2 2004-07-14 00:00:00 Temperatura 17.4 del 14-07-2004 00:00, Mayor que la Máxima 17.2 14-07-2004 00:00 17.4 -- 17.2 2023-12-29 02:23:00
2 2004-09-29 00:00:00 Temperatura 19.0 del 28-09-2004 18:00, Mayor que la Máxima 17.8 29-09-2004 00:00 19.0 -- 17.8 2023-12-29 02:24:00
2 2004-12-01 00:00:00 Temperatura 22.2 del 30-11-2004 18:00, Mayor que la Máxima 21.2 01-12-2004 00:00 22.2 -- 21.2 2023-12-29 02:24:00
2 2004-12-13 00:00:00 Temperatura 21.2 del 12-12-2004 18:00, Mayor que la Máxima 19.6 13-12-2004 00:00 21.2 -- 19.6 2023-12-29 02:24:00
2 2004-12-22 00:00:00 Temperatura 21.4 del 22-12-2004 00:00, Mayor que la Máxima 19.8 22-12-2004 00:00 21.4 -- 19.8 2023-12-29 02:24:00
2 2005-05-08 00:00:00 Temperatura 17.8 del 07-05-2005 18:00, Mayor que la Máxima 17.2 08-05-2005 00:00 17.8 -- 17.2 2023-12-29 02:24:00
2 2005-05-24 00:00:00 Temperatura 12.7 del 24-05-2005 00:00, Mayor que la Máxima 12.0 24-05-2005 00:00 12.7 -- 12.0 2023-12-29 02:24:00
2 2005-07-18 00:00:00 Temperatura 14.4 del 17-07-2005 18:00, Mayor que la Máxima 12.0 18-07-2005 00:00 14.4 -- 12.0 2023-12-29 02:24:00
2 2005-10-31 00:00:00 Temperatura 20.1 del 31-10-2005 00:00, Mayor que la Máxima 2.2 31-10-2005 00:00 20.1 -- 2.2 2023-12-29 02:24:00
2 2013-01-25 00:00:00 Temperatura 23.4 del 25-01-2013 00:00, Mayor que la Máxima 23.2 25-01-2013 00:00 23.4 -- 23.2 2014-05-29 19:17:00
2 2013-04-21 00:00:00 Temperatura 21.0 del 21-04-2013 00:00, Mayor que la Máxima 19.4 21-04-2013 00:00 21.0 -- 19.4 2014-05-30 15:52:00
2 2013-04-30 00:00:00 Temperatura 23.4 del 30-04-2013 00:00, Mayor que la Máxima 23.0 30-04-2013 00:00 23.4 -- 23.0 2014-05-30 15:53:00
2 2013-05-20 00:00:00 Temperatura 20.0 del 20-05-2013 00:00, Mayor que la Máxima 18.8 20-05-2013 00:00 20.0 -- 18.8 2014-05-30 16:53:00
2 2013-06-27 00:00:00 Temperatura 13.0 del 26-06-2013 18:00, Mayor que la Máxima 10.2 27-06-2013 00:00 13.0 -- 10.2 2014-05-30 19:19:00
2 2013-06-30 00:00:00 Temperatura 16.0 del 30-06-2013 00:00, Mayor que la Máxima 14.4 30-06-2013 00:00 16.0 -- 14.4 2014-05-30 19:20:00
2 2013-08-25 00:00:00 Temperatura 22.0 del 24-08-2013 18:00, Mayor que la Máxima 17.0 25-08-2013 00:00 22.0 -- 17.0 2014-06-02 15:59:00
2 2013-08-27 00:00:00 Temperatura 21.0 del 26-08-2013 18:00, Mayor que la Máxima 17.6 27-08-2013 00:00 21.0 -- 17.6 2014-06-02 15:59:00
2 2013-11-06 00:00:00 Temperatura 20.4 del 05-11-2013 18:00, Mayor que la Máxima 20.2 06-11-2013 00:00 20.4 -- 20.2 2014-06-02 21:12:00
2 2013-11-16 00:00:00 Temperatura 26.4 del 15-11-2013 18:00, Mayor que la Máxima 24.0 16-11-2013 00:00 26.4 -- 24.0 2014-06-02 21:13:00
2 2003-08-10 12:00:00 Temperatura 7.8 del 10-08-2003 12:00, Menor que la Mínima 8.2 10-08-2003 12:00 7.8 -- 8.2 2023-12-29 02:23:00
2 2003-09-03 12:00:00 Temperatura 10.2 del 03-09-2003 12:00, Menor que la Mínima 13.0 03-09-2003 12:00 10.2 -- 13.0 2023-12-29 02:23:00
2 2003-09-04 12:00:00 Temperatura 10.8 del 04-09-2003 12:00, Menor que la Mínima 11.2 04-09-2003 12:00 10.8 -- 11.2 2023-12-29 02:23:00
2 2013-06-07 12:00:00 Temperatura 10.8 del 07-06-2013 12:00, Menor que la Mínima 11.0 07-06-2013 12:00 10.8 -- 11.0 2014-05-30 19:19:00
2 2013-07-17 12:00:00 Temperatura 9.0 del 17-07-2013 12:00, Menor que la Mínima 9.2 17-07-2013 12:00 9.0 -- 9.2 2014-06-02 14:22:00
2 2013-07-20 12:00:00 Temperatura 9.0 del 20-07-2013 12:00, Menor que la Mínima 10.0 20-07-2013 12:00 9.0 -- 10.0 2014-06-02 14:22:00
2 2013-08-19 12:00:00 Temperatura 9.4 del 19-08-2013 12:00, Menor que la Mínima 9.8 19-08-2013 12:00 9.4 -- 9.8 2014-06-02 15:59:00
2 2013-10-15 12:00:00 Temperatura 9.6 del 15-10-2013 12:00, Menor que la Mínima 10.2 15-10-2013 12:00 9.6 -- 10.2 2014-06-02 19:42:00
2 2013-11-20 12:00:00 Temperatura 7.0 del 20-11-2013 12:00, Menor que la Mínima 10.2 20-11-2013 12:00 7.0 -- 10.2 2014-06-02 21:13:00
Errores del Nivel 74
Informe generado el 05-03-2024 11:16
Requerimiento: RE6001